Time;durP1;ratioP1;P1;durP2;ratioP2;P2;SDS_P1;SDS_P2;PMS_P1;PMS_P2;Temp;Humidity;BMP_temperature;BMP_pressure;BME280_temperature;BME280_humidity;BME280_pressure;Samples;Min_cycle;Max_cycle;Signal;HPM_P1;HPM_P2
2022/07/20 00:00:45;;;;;;;1.75;1.48;;;;;;;29.58;42.82;101228.69;5011728;28;20057;-78
2022/07/20 00:03:12;;;;;;;1.70;1.40;;;;;;;29.56;42.87;101225.19;5028053;28;20048;-79
2022/07/20 00:05:41;;;;;;;1.65;1.50;;;;;;;29.55;43.55;101220.78;5027884;28;20037;-78
2022/07/20 00:08:07;;;;;;;1.95;1.50;;;;;;;29.56;42.90;101231.44;5029230;28;20034;-78
2022/07/20 00:13:17;;;;;;;1.90;1.40;;;;;;;29.55;43.26;101229.72;5036252;28;20118;-78
2022/07/20 00:15:43;;;;;;;1.55;1.40;;;;;;;29.53;42.91;101230.75;5035024;28;20037;-78
2022/07/20 00:18:09;;;;;;;1.67;1.40;;;;;;;29.53;43.11;101228.06;5035772;28;20061;-78
2022/07/20 00:20:35;;;;;;;3.15;1.50;;;;;;;29.53;42.96;101220.88;5035822;28;20056;-78
2022/07/20 00:23:02;;;;;;;1.60;1.40;;;;;;;29.53;43.21;101218.19;5035555;28;20499;-79
2022/07/20 00:25:27;;;;;;;1.65;1.50;;;;;;;29.54;42.90;101221.72;5035273;28;20108;-77
2022/07/20 00:27:53;;;;;;;1.95;1.55;;;;;;;29.53;43.31;101228.06;5034639;28;20040;-78
2022/07/20 00:30:18;;;;;;;1.77;1.40;;;;;;;29.51;42.97;101217.44;5034214;28;20036;-78
2022/07/20 00:32:44;;;;;;;1.92;1.65;;;;;;;29.53;42.84;101217.31;5035539;28;20131;-78
2022/07/20 00:35:12;;;;;;;1.60;1.40;;;;;;;29.53;43.25;101223.56;5035396;28;20021;-78
2022/07/20 00:37:38;;;;;;;1.40;1.27;;;;;;;29.51;43.15;101217.44;5035661;28;20053;-78
2022/07/20 00:40:06;;;;;;;1.85;1.50;;;;;;;29.51;43.02;101220.13;5034379;28;20065;-78
2022/07/20 00:42:33;;;;;;;1.70;1.50;;;;;;;29.51;42.84;101213.88;5035365;28;20432;-78
2022/07/20 00:44:58;;;;;;;1.80;1.55;;;;;;;29.52;43.20;101215.63;5035237;28;20086;-78
2022/07/20 00:47:24;;;;;;;2.45;1.50;;;;;;;29.49;43.33;101210.41;5035299;28;20037;-78
2022/07/20 00:49:49;;;;;;;1.88;1.42;;;;;;;29.50;43.43;101212.13;5035527;28;20063;-79
2022/07/20 00:52:15;;;;;;;1.70;1.50;;;;;;;29.49;43.22;101211.28;5033836;28;20068;-78
2022/07/20 00:54:40;;;;;;;1.70;1.42;;;;;;;29.49;43.27;101205.91;5034814;28;20045;-78
2022/07/20 00:57:06;;;;;;;1.50;1.40;;;;;;;29.46;43.26;101208.75;5035489;28;20120;-79
2022/07/20 00:59:31;;;;;;;1.55;1.30;;;;;;;29.47;42.87;101205.13;5034230;28;20092;-78
2022/07/20 01:01:57;;;;;;;1.55;1.30;;;;;;;29.47;43.17;101197.06;5033336;28;20061;-78
2022/07/20 01:04:23;;;;;;;1.92;1.60;;;;;;;29.47;43.19;101191.69;5035256;28;20032;-79
2022/07/20 01:06:49;;;;;;;1.85;1.50;;;;;;;29.48;43.25;101198.78;5035396;28;20096;-78
2022/07/20 01:09:18;;;;;;;1.80;1.50;;;;;;;29.45;43.17;101190.94;5034334;28;20038;-79
2022/07/20 01:11:44;;;;;;;1.70;1.40;;;;;;;29.46;42.81;101192.63;5034786;28;20056;-78
2022/07/20 01:14:10;;;;;;;1.65;1.55;;;;;;;29.46;43.23;101194.50;5035332;28;20028;-79
2022/07/20 01:16:37;;;;;;;2.33;1.70;;;;;;;29.46;43.07;101197.19;5035203;28;20036;-79
2022/07/20 01:19:03;;;;;;;1.70;1.50;;;;;;;29.43;43.21;101192.84;5035530;28;20603;-79
2022/07/20 01:21:29;;;;;;;1.73;1.50;;;;;;;29.44;42.95;101194.56;5033712;28;20502;-78
2022/07/20 01:23:54;;;;;;;1.88;1.52;;;;;;;29.44;43.37;101192.75;5032044;28;20234;-78
2022/07/20 01:26:19;;;;;;;1.50;1.40;;;;;;;29.43;42.88;101198.22;5032165;28;20456;-78
2022/07/20 01:28:45;;;;;;;1.90;1.60;;;;;;;29.43;43.06;101192.84;5029843;28;20503;-78
2022/07/20 01:31:11;;;;;;;1.60;1.50;;;;;;;29.43;43.37;101193.69;5030539;28;20105;-78
2022/07/20 01:33:36;;;;;;;1.80;1.60;;;;;;;29.42;43.43;101191.97;5032124;28;20056;-78
2022/07/20 01:36:02;;;;;;;1.60;1.50;;;;;;;29.41;43.15;101187.53;5031594;28;20033;-78
2022/07/20 01:38:27;;;;;;;1.60;1.30;;;;;;;29.43;42.91;101182.09;5031773;28;20021;-78
2022/07/20 01:40:53;;;;;;;1.98;1.65;;;;;;;29.40;43.29;101190.31;5031815;28;20029;-79
2022/07/20 01:43:18;;;;;;;1.67;1.50;;;;;;;29.37;43.51;101186.00;5031434;28;20052;-78
2022/07/20 01:45:44;;;;;;;1.60;1.50;;;;;;;29.36;43.40;101183.41;5030221;28;20064;-78
2022/07/20 01:48:10;;;;;;;1.60;1.50;;;;;;;29.36;43.54;101180.72;5030526;28;20037;-79
2022/07/20 01:50:37;;;;;;;2.00;1.63;;;;;;;29.32;43.62;101177.34;5031400;28;20033;-79
2022/07/20 01:53:03;;;;;;;1.48;1.38;;;;;;;29.31;43.42;101175.59;5030825;28;20120;-78
2022/07/20 01:55:28;;;;;;;1.70;1.60;;;;;;;29.32;43.21;101181.84;5031516;28;20210;-79
2022/07/20 01:57:53;;;;;;;2.53;1.55;;;;;;;29.35;43.09;101173.63;5031701;28;20030;-79
2022/07/20 02:00:19;;;;;;;3.05;1.55;;;;;;;29.35;43.22;101177.16;5030134;28;20060;-79
2022/07/20 02:02:44;;;;;;;1.50;1.40;;;;;;;29.33;43.22;101173.72;5030159;28;20025;-79
2022/07/20 02:05:10;;;;;;;1.50;1.40;;;;;;;29.33;43.14;101175.56;5051020;28;20030;-79
2022/07/20 02:07:37;;;;;;;1.40;1.30;;;;;;;29.32;43.50;101173.78;5031312;28;20074;-79
2022/07/20 02:10:05;;;;;;;1.70;1.60;;;;;;;29.31;43.63;101175.59;5031606;28;20041;-78
2022/07/20 02:12:30;;;;;;;1.73;1.50;;;;;;;29.28;43.66;101174.91;5030726;28;20488;-79
2022/07/20 02:14:55;;;;;;;2.28;1.60;;;;;;;29.28;43.25;101174.91;5029675;28;20037;-79
2022/07/20 02:17:21;;;;;;;2.30;1.48;;;;;;;29.29;43.25;101172.13;5031311;28;20036;-79
2022/07/20 02:19:46;;;;;;;1.88;1.50;;;;;;;29.25;43.30;101170.59;5029792;28;20040;-79
2022/07/20 02:22:11;;;;;;;1.55;1.40;;;;;;;29.24;43.36;101178.75;5031073;28;20033;-79
2022/07/20 02:24:37;;;;;;;1.50;1.40;;;;;;;29.27;43.63;101171.38;5029293;28;20037;-79
2022/07/20 02:27:02;;;;;;;1.85;1.60;;;;;;;29.25;43.16;101170.59;5029237;28;20041;-79
2022/07/20 02:29:27;;;;;;;1.77;1.50;;;;;;;29.26;43.21;101163.41;5031005;28;20435;-79
2022/07/20 02:31:53;;;;;;;1.70;1.60;;;;;;;29.25;43.58;101175.09;5030878;28;20811;-79
2022/07/20 02:34:18;;;;;;;1.70;1.60;;;;;;;29.23;43.66;101182.38;5030091;28;20033;-78
2022/07/20 02:36:43;;;;;;;1.58;1.48;;;;;;;29.20;43.66;101175.38;5030816;28;20025;-79
2022/07/20 02:39:09;;;;;;;1.70;1.45;;;;;;;29.19;43.67;101189.75;5029630;28;20037;-78
2022/07/20 02:41:34;;;;;;;1.70;1.60;;;;;;;29.20;43.59;101186.13;5030594;28;20056;-78
2022/07/20 02:44:00;;;;;;;3.90;1.70;;;;;;;29.19;43.38;101176.34;5012520;28;20064;-78
2022/07/20 02:46:26;;;;;;;2.00;1.70;;;;;;;29.20;43.67;101179.88;5030361;28;20059;-78
2022/07/20 02:48:51;;;;;;;2.70;1.50;;;;;;;29.19;43.86;101178.16;5030511;28;20041;-78
2022/07/20 02:51:17;;;;;;;2.15;1.70;;;;;;;29.18;43.36;101177.28;5030426;28;20033;-78
2022/07/20 02:53:42;;;;;;;1.70;1.60;;;;;;;29.17;43.64;101175.56;5030007;28;20396;-78
2022/07/20 02:56:07;;;;;;;2.10;1.52;;;;;;;29.17;43.45;101178.22;5030348;28;21224;-79
2022/07/20 02:58:33;;;;;;;1.75;1.60;;;;;;;29.17;43.46;101172.88;5030341;28;20040;-79
2022/07/20 03:00:58;;;;;;;1.80;1.58;;;;;;;29.20;43.50;101175.38;5028921;28;20041;-79
2022/07/20 03:03:24;;;;;;;1.95;1.70;;;;;;;29.20;43.24;101170.00;5028577;28;20036;-78
2022/07/20 03:05:49;;;;;;;1.80;1.60;;;;;;;29.20;43.32;101169.16;5030065;28;20026;-78
2022/07/20 03:08:15;;;;;;;2.00;1.80;;;;;;;29.18;43.58;101165.69;5030568;28;20048;-77
2022/07/20 03:10:40;;;;;;;1.92;1.70;;;;;;;29.19;43.71;101162.03;5030411;28;20025;-79
2022/07/20 03:13:06;;;;;;;1.98;1.70;;;;;;;29.18;43.36;101160.31;5030270;28;20045;-78
2022/07/20 03:15:31;;;;;;;2.22;1.70;;;;;;;29.17;43.43;101156.75;5029430;28;20108;-79
2022/07/20 03:17:57;;;;;;;1.80;1.60;;;;;;;29.19;43.35;101162.91;5030173;28;20087;-79
2022/07/20 03:20:24;;;;;;;3.03;1.70;;;;;;;29.18;43.26;101163.84;5029856;28;20104;-79
2022/07/20 03:22:50;;;;;;;1.92;1.60;;;;;;;29.14;43.41;101165.00;5029717;28;20107;-79
2022/07/20 03:25:16;;;;;;;1.83;1.63;;;;;;;29.15;43.74;101165.88;5029558;28;20098;-78
2022/07/20 03:27:41;;;;;;;1.75;1.50;;;;;;;29.16;43.33;101165.75;5030012;28;20067;-78
2022/07/20 03:30:07;;;;;;;2.20;1.70;;;;;;;29.12;43.25;101163.34;5028028;28;20039;-79
2022/07/20 03:32:33;;;;;;;2.08;1.60;;;;;;;29.16;43.39;101156.84;5011866;28;20065;-78
2022/07/20 03:34:59;;;;;;;2.25;1.70;;;;;;;29.14;43.52;101154.28;5029614;28;20053;-78
2022/07/20 03:37:24;;;;;;;2.30;1.80;;;;;;;29.15;43.50;101157.81;5029186;28;20039;-78
2022/07/20 03:39:50;;;;;;;1.73;1.55;;;;;;;29.13;43.64;101160.59;5029413;28;20032;-79
2022/07/20 03:42:15;;;;;;;1.77;1.60;;;;;;;29.11;43.64;101159.81;5029669;28;20108;-78
2022/07/20 03:44:41;;;;;;;2.75;1.67;;;;;;;29.08;43.73;101157.31;5027669;28;20037;-78
2022/07/20 03:47:06;;;;;;;1.80;1.70;;;;;;;29.10;43.29;101163.44;5028758;28;20030;-78
2022/07/20 03:49:31;;;;;;;2.17;1.73;;;;;;;29.13;43.29;101170.47;5028200;28;20033;-79
2022/07/20 03:51:57;;;;;;;1.90;1.70;;;;;;;29.14;43.71;101161.47;5027666;28;20116;-79
2022/07/20 03:54:22;;;;;;;2.20;1.70;;;;;;;29.11;43.49;101169.66;5027599;28;20369;-78
2022/07/20 03:56:48;;;;;;;2.30;1.85;;;;;;;29.12;43.71;101164.22;5029218;28;20376;-78
2022/07/20 03:59:13;;;;;;;2.20;1.75;;;;;;;29.09;43.37;101171.59;5028031;28;20021;-78
2022/07/20 04:01:39;;;;;;;2.85;1.80;;;;;;;29.05;43.28;101165.53;5027792;28;20037;-78
2022/07/20 04:04:04;;;;;;;1.90;1.77;;;;;;;29.05;43.87;101170.91;5028479;28;20021;-78
2022/07/20 04:06:30;;;;;;;1.75;1.63;;;;;;;29.07;43.30;101166.31;5027787;28;20044;-78
2022/07/20 04:08:56;;;;;;;2.15;1.60;;;;;;;29.08;43.69;101172.56;5029148;28;20033;-79
2022/07/20 04:11:21;;;;;;;2.63;1.65;;;;;;;29.09;43.61;101177.84;5029113;28;20033;-78
2022/07/20 04:13:46;;;;;;;2.03;1.75;;;;;;;29.06;43.42;101172.63;5028406;28;20022;-79
2022/07/20 04:16:12;;;;;;;2.55;1.70;;;;;;;29.10;43.22;101173.31;5029265;28;20025;-79
2022/07/20 04:18:37;;;;;;;2.13;1.70;;;;;;;29.07;43.68;101169.00;5028792;28;20049;-79
2022/07/20 04:21:03;;;;;;;2.38;1.80;;;;;;;29.05;43.64;101170.91;5028845;28;20037;-79
2022/07/20 04:23:28;;;;;;;1.92;1.70;;;;;;;29.08;43.42;101186.84;5028507;28;20109;-77
2022/07/20 04:25:53;;;;;;;2.10;1.75;;;;;;;29.09;43.26;101183.22;5029236;28;20033;-79
2022/07/20 04:28:19;;;;;;;2.00;1.80;;;;;;;29.09;43.54;101193.94;5029278;28;20038;-79
2022/07/20 04:30:44;;;;;;;2.00;1.70;;;;;;;29.12;43.45;101187.53;5027709;28;20029;-78
2022/07/20 04:33:10;;;;;;;2.25;1.80;;;;;;;29.15;43.44;101200.78;5029206;28;20112;-78
2022/07/20 04:35:36;;;;;;;1.92;1.70;;;;;;;29.14;43.07;101191.84;5028603;28;20095;-78
2022/07/20 04:38:01;;;;;;;2.10;1.80;;;;;;;29.13;43.02;101194.63;5029129;28;20029;-79
2022/07/20 04:40:27;;;;;;;1.90;1.70;;;;;;;29.13;43.26;101198.19;5028982;28;20530;-78
2022/07/20 04:42:52;;;;;;;2.28;1.80;;;;;;;29.13;43.10;101205.38;5028891;28;20506;-79
2022/07/20 04:45:18;;;;;;;2.30;1.80;;;;;;;29.13;43.00;101206.22;5028309;28;20057;-78
2022/07/20 04:47:43;;;;;;;3.45;1.80;;;;;;;29.13;43.53;101200.84;5028174;28;20040;-79
2022/07/20 04:50:09;;;;;;;2.17;1.90;;;;;;;29.13;43.14;101200.00;5028859;28;20026;-78
2022/07/20 04:52:34;;;;;;;1.73;1.60;;;;;;;29.16;43.41;101210.53;5028813;28;20033;-79
2022/07/20 04:55:00;;;;;;;2.83;1.80;;;;;;;29.15;43.17;101212.38;5027011;28;20501;-79
2022/07/20 04:57:25;;;;;;;2.00;1.80;;;;;;;29.16;43.46;101208.72;5030494;28;20403;-79
2022/07/20 04:59:51;;;;;;;2.20;1.90;;;;;;;29.13;43.09;101200.84;5032592;28;20746;-79
2022/07/20 05:02:16;;;;;;;2.00;1.80;;;;;;;29.15;43.00;101215.06;5032063;28;20166;-79
2022/07/20 05:04:41;;;;;;;2.78;1.90;;;;;;;29.14;43.35;101204.41;5032462;28;20088;-79
2022/07/20 05:07:07;;;;;;;3.00;2.00;;;;;;;29.14;43.59;101209.78;5032153;28;20048;-79
2022/07/20 05:09:32;;;;;;;2.17;1.83;;;;;;;29.13;43.47;101218.78;5032104;28;20032;-79
2022/07/20 05:11:57;;;;;;;2.47;1.85;;;;;;;29.14;43.36;101223.22;5032036;28;20065;-79
2022/07/20 05:14:23;;;;;;;2.10;1.90;;;;;;;29.14;42.99;101228.56;5030352;28;20022;-79
2022/07/20 05:16:48;;;;;;;2.25;1.95;;;;;;;29.14;42.99;101224.06;5031010;28;20052;-79
2022/07/20 05:19:14;;;;;;;2.13;1.90;;;;;;;29.14;43.35;101225.91;5013718;28;20033;-79
2022/07/20 05:21:39;;;;;;;2.20;2.00;;;;;;;29.15;43.10;101217.75;5031594;28;20037;-79
2022/07/20 05:24:05;;;;;;;2.13;1.90;;;;;;;29.16;43.13;101221.28;5031933;28;20037;-79
2022/07/20 05:26:30;;;;;;;2.67;1.98;;;;;;;29.18;43.20;101238.19;5032039;28;20056;-79
2022/07/20 05:28:56;;;;;;;2.10;1.80;;;;;;;29.19;42.83;101237.22;5031313;28;20487;-79
2022/07/20 05:31:21;;;;;;;1.95;1.75;;;;;;;29.20;43.12;101234.47;5027334;28;20395;-79
2022/07/20 05:33:46;;;;;;;2.78;1.70;;;;;;;29.20;43.08;101230.91;5031783;28;20036;-79
2022/07/20 05:36:12;;;;;;;2.42;2.05;;;;;;;29.20;42.88;101242.50;5031567;28;20037;-79
2022/07/20 05:38:37;;;;;;;2.17;1.90;;;;;;;29.21;42.74;101233.50;5031207;28;20098;-78
2022/07/20 05:41:03;;;;;;;2.10;1.90;;;;;;;29.22;42.82;101239.72;5031795;28;20175;-79
2022/07/20 05:43:28;;;;;;;2.40;2.08;;;;;;;29.22;43.15;101243.28;5031594;28;20025;-79
2022/07/20 05:45:54;;;;;;;2.22;2.00;;;;;;;29.22;42.62;101250.47;5031525;28;20503;-79
2022/07/20 05:48:19;;;;;;;2.63;2.08;;;;;;;29.23;42.90;101250.38;5031097;28;20197;-78
2022/07/20 05:50:45;;;;;;;2.38;1.95;;;;;;;29.25;42.69;101244.94;5031100;28;20060;-79
2022/07/20 05:53:11;;;;;;;2.92;2.00;;;;;;;29.25;42.37;101248.47;5031608;28;20120;-79
2022/07/20 05:55:38;;;;;;;2.88;1.90;;;;;;;29.29;42.73;101243.78;5031375;28;20037;-78
2022/07/20 05:58:05;;;;;;;2.00;1.80;;;;;;;29.41;42.47;101251.16;5031389;28;20116;-79
2022/07/20 06:00:32;;;;;;;2.53;1.98;;;;;;;29.53;41.99;101254.94;5030921;28;20116;-80
2022/07/20 06:02:58;;;;;;;2.15;1.90;;;;;;;29.64;41.67;101258.69;5031138;28;20025;-79
2022/07/20 06:05:24;;;;;;;2.20;2.00;;;;;;;29.69;41.68;101270.06;5031117;28;20538;-79
2022/07/20 06:07:49;;;;;;;2.10;1.90;;;;;;;29.75;41.90;101274.19;5030875;28;20029;-80
2022/07/20 06:10:14;;;;;;;2.10;1.90;;;;;;;29.81;41.79;101272.00;5030168;28;20060;-79
2022/07/20 06:12:40;;;;;;;1.95;1.75;;;;;;;29.89;41.27;101268.84;5031255;28;20133;-79
2022/07/20 06:15:06;;;;;;;3.13;1.90;;;;;;;29.93;41.29;101266.88;5029545;28;20095;-79
2022/07/20 06:17:37;;;;;;;2.20;1.90;;;;;;;29.94;41.14;101266.78;5029667;28;20033;-80
2022/07/20 06:20:05;;;;;;;2.13;1.90;;;;;;;30.01;41.26;101261.91;5030698;28;20476;-79
2022/07/20 06:22:31;;;;;;;2.53;2.05;;;;;;;30.04;41.09;101259.88;5030660;28;20034;-80
2022/07/20 06:24:56;;;;;;;2.58;2.17;;;;;;;30.06;41.02;101263.34;5030781;28;20035;-80
2022/07/20 06:27:21;;;;;;;2.20;1.92;;;;;;;30.05;41.14;101269.69;5030738;28;20044;-80
2022/07/20 06:29:47;;;;;;;2.08;1.88;;;;;;;30.09;40.92;101267.66;5029026;28;20140;-79
2022/07/20 06:32:12;;;;;;;2.55;2.05;;;;;;;30.01;40.78;101265.44;5030877;28;20091;-79
2022/07/20 06:34:37;;;;;;;2.53;2.20;;;;;;;30.00;41.25;101270.94;5030534;28;20025;-78
2022/07/20 06:37:03;;;;;;;2.60;2.15;;;;;;;29.95;41.55;101271.19;5029173;28;20044;-80
2022/07/20 06:39:28;;;;;;;2.28;1.90;;;;;;;29.94;41.60;101276.69;5030682;28;20032;-79
2022/07/20 06:41:53;;;;;;;2.70;2.10;;;;;;;29.96;41.54;101280.13;5030431;28;20030;-79
2022/07/20 06:44:19;;;;;;;2.20;2.00;;;;;;;29.96;41.69;101280.13;5029948;28;20112;-79
2022/07/20 06:46:44;;;;;;;2.10;1.90;;;;;;;29.95;41.36;101279.25;5030530;28;20103;-80
2022/07/20 06:49:10;;;;;;;2.25;2.00;;;;;;;29.96;41.48;101294.44;5030739;28;20526;-79
2022/07/20 06:51:35;;;;;;;2.25;1.95;;;;;;;29.94;41.80;101282.91;5028764;28;20037;-80
2022/07/20 06:54:00;;;;;;;2.10;1.90;;;;;;;29.94;41.85;101280.22;5029809;28;20727;-79
2022/07/20 06:56:26;;;;;;;2.38;2.00;;;;;;;29.94;41.75;101274.84;5030197;28;20069;-79
2022/07/20 06:58:51;;;;;;;2.05;1.85;;;;;;;29.96;41.95;101275.59;5028143;28;20068;-79
2022/07/20 07:01:17;;;;;;;2.42;2.00;;;;;;;29.97;41.97;101280.03;5029911;28;20030;-79
2022/07/20 07:03:42;;;;;;;2.40;2.00;;;;;;;29.96;41.66;101283.66;5029781;28;20395;-79
2022/07/20 07:06:07;;;;;;;2.38;2.00;;;;;;;29.99;41.69;101298.75;5028485;28;20147;-79
2022/07/20 07:08:33;;;;;;;2.75;1.90;;;;;;;30.02;41.58;101291.38;5029925;28;20025;-79
2022/07/20 07:10:58;;;;;;;2.53;1.95;;;;;;;30.04;41.46;101291.28;5029468;28;20434;-78
2022/07/20 07:13:23;;;;;;;2.30;2.00;;;;;;;30.04;41.87;101299.34;5029683;28;20037;-78
2022/07/20 07:15:49;;;;;;;3.10;2.00;;;;;;;30.05;41.72;101287.63;5029608;28;20033;-78
2022/07/20 07:18:14;;;;;;;2.78;1.98;;;;;;;30.06;41.91;101294.75;5029840;28;20515;-79
2022/07/20 07:20:39;;;;;;;2.30;2.10;;;;;;;30.07;41.73;101300.00;5028296;28;20405;-78
2022/07/20 07:23:05;;;;;;;2.40;2.00;;;;;;;30.08;42.13;101300.88;5029574;28;20444;-79
2022/07/20 07:25:30;;;;;;;2.30;2.10;;;;;;;30.10;42.08;101293.59;5029408;28;20107;-79
2022/07/20 07:27:56;;;;;;;2.85;1.90;;;;;;;30.11;41.95;101300.69;5029212;28;20044;-79
2022/07/20 07:30:21;;;;;;;2.45;2.00;;;;;;;30.11;42.03;101301.56;5028321;28;20037;-79
2022/07/20 07:32:46;;;;;;;2.30;1.90;;;;;;;30.10;41.80;101313.28;5029214;28;20055;-79
2022/07/20 07:35:12;;;;;;;2.28;1.90;;;;;;;30.12;42.06;101321.25;5028098;28;20490;-78
2022/07/20 07:37:40;;;;;;;2.60;2.00;;;;;;;30.14;41.69;101322.00;5029542;28;20793;-79
2022/07/20 07:40:06;;;;;;;2.00;1.80;;;;;;;30.12;41.71;101332.88;5029342;28;20535;-78
2022/07/20 07:42:31;;;;;;;3.15;1.90;;;;;;;30.13;41.75;101337.28;5001892;28;20064;-78
2022/07/20 07:44:58;;;;;;;2.20;2.00;;;;;;;30.16;41.65;101342.50;5028184;28;20036;-80
2022/07/20 07:47:24;;;;;;;2.50;2.10;;;;;;;30.16;41.80;101347.00;5028985;28;20043;-78
2022/07/20 07:49:49;;;;;;;2.20;1.90;;;;;;;30.17;41.71;101346.03;5029375;28;20472;-79
2022/07/20 07:52:14;;;;;;;3.03;2.15;;;;;;;30.18;42.04;101348.66;5027783;28;20052;-80
2022/07/20 07:54:40;;;;;;;2.45;2.00;;;;;;;30.22;41.91;101357.38;5027376;28;20076;-79
2022/07/20 07:57:05;;;;;;;2.25;1.90;;;;;;;30.23;42.14;101351.06;5027891;28;20392;-79
2022/07/20 07:59:31;;;;;;;2.75;1.90;;;;;;;30.23;41.72;101367.19;5028620;28;20067;-78
2022/07/20 08:01:56;;;;;;;2.17;1.95;;;;;;;30.23;41.84;101362.69;5029338;28;20038;-79
2022/07/20 08:04:21;;;;;;;2.45;2.17;;;;;;;30.25;42.06;101362.59;5029262;28;20554;-79
2022/07/20 08:06:49;;;;;;;2.30;2.10;;;;;;;30.25;42.17;101359.91;5027758;28;20044;-79
2022/07/20 08:09:14;;;;;;;2.30;2.10;;;;;;;30.28;41.96;101366.91;5028957;28;20361;-77
2022/07/20 08:11:40;;;;;;;2.30;2.10;;;;;;;30.29;41.84;101369.50;5029186;28;20060;-79
2022/07/20 08:14:05;;;;;;;2.40;2.10;;;;;;;30.29;41.80;101377.56;5028892;28;20010;-79
2022/07/20 08:16:32;;;;;;;2.85;2.20;;;;;;;30.30;42.24;101373.94;5028103;28;20030;-78
2022/07/20 08:18:57;;;;;;;2.42;2.20;;;;;;;30.33;42.18;101375.56;5028568;28;20029;-78
2022/07/20 08:21:23;;;;;;;3.05;2.40;;;;;;;30.34;42.26;101383.53;5028944;28;20035;-78
2022/07/20 08:23:48;;;;;;;2.58;2.30;;;;;;;30.35;42.32;101387.97;5028796;28;20061;-78
2022/07/20 08:26:13;;;;;;;2.70;2.35;;;;;;;30.36;41.90;101408.53;4998725;28;20042;-77
2022/07/20 08:28:40;;;;;;;3.28;2.30;;;;;;;30.39;42.14;101407.47;5027559;28;20037;-77
2022/07/20 08:31:05;;;;;;;2.65;2.30;;;;;;;30.41;41.89;101410.94;5026878;28;20061;-78
2022/07/20 08:33:31;;;;;;;3.03;2.20;;;;;;;30.40;42.06;101403.81;5031277;28;20053;-79
2022/07/20 08:35:56;;;;;;;2.60;2.20;;;;;;;30.40;41.94;101415.44;5031769;28;20064;-78
2022/07/20 08:38:21;;;;;;;2.50;2.22;;;;;;;30.41;42.12;101419.88;5033413;28;20048;-78
2022/07/20 08:40:47;;;;;;;2.47;2.20;;;;;;;30.44;42.08;101419.66;5032833;28;20033;-78
2022/07/20 08:43:13;;;;;;;3.20;2.20;;;;;;;30.45;41.93;101423.22;5032207;28;20068;-77
2022/07/20 08:45:38;;;;;;;3.00;2.50;;;;;;;30.46;41.83;101422.28;5032483;28;20506;-77
2022/07/20 08:48:08;;;;;;;2.55;2.33;;;;;;;30.46;42.14;101423.16;5032587;28;20029;-76
2022/07/20 08:50:34;;;;;;;2.80;2.50;;;;;;;30.48;42.17;101423.97;5032811;28;20120;-78
2022/07/20 08:53:00;;;;;;;2.85;2.40;;;;;;;30.49;42.03;101439.16;5032182;28;20052;-77
2022/07/20 08:55:27;;;;;;;2.95;2.63;;;;;;;30.49;42.13;101449.91;5032396;28;20054;-78
2022/07/20 08:57:53;;;;;;;3.30;2.78;;;;;;;30.51;42.05;101453.34;5032234;28;20033;-78
2022/07/20 09:00:19;;;;;;;3.00;2.70;;;;;;;30.51;42.07;101464.13;5032388;28;20128;-77
2022/07/20 09:02:47;;;;;;;3.10;2.50;;;;;;;30.51;42.05;101480.28;5032616;28;20349;-77
2022/07/20 09:05:12;;;;;;;3.15;2.70;;;;;;;30.55;42.04;101473.75;5032520;28;20439;-77
2022/07/20 09:07:43;;;;;;;3.10;2.80;;;;;;;30.54;42.17;101476.53;5032430;28;20049;-77
2022/07/20 09:10:12;;;;;;;3.53;2.63;;;;;;;30.55;41.95;101478.28;5032369;28;20037;-77
2022/07/20 09:12:59;;;;;;;3.38;2.90;;;;;;;30.56;41.93;101475.47;5031988;28;20045;-77
2022/07/20 09:15:29;;;;;;;3.65;3.08;;;;;;;30.56;42.16;101482.69;5022247;28;20037;-77
2022/07/20 09:18:24;;;;;;;3.13;2.78;;;;;;;30.59;42.17;101488.75;5031123;28;20446;-75
2022/07/20 09:20:51;;;;;;;3.20;2.80;;;;;;;30.60;42.20;101500.38;5027697;28;20041;-77
2022/07/20 09:23:20;;;;;;;3.30;2.60;;;;;;;30.60;41.86;101501.25;5031936;28;20021;-77
2022/07/20 09:25:54;;;;;;;3.30;2.75;;;;;;;30.62;42.34;101523.53;5031942;28;20781;-77
2022/07/20 09:28:20;;;;;;;4.60;2.88;;;;;;;30.63;41.94;101505.56;5031151;28;20024;-77
2022/07/20 09:31:14;;;;;;;4.05;2.92;;;;;;;30.64;42.02;101518.94;5031872;28;20376;-76
2022/07/20 09:33:47;;;;;;;3.30;2.90;;;;;;;30.66;41.92;101518.88;5031364;28;20037;-77
2022/07/20 09:36:14;;;;;;;3.42;2.95;;;;;;;30.66;41.85;101518.00;5032094;28;20083;-77
2022/07/20 09:38:41;;;;;;;3.80;3.13;;;;;;;30.68;41.89;101527.69;5032085;28;20502;-74
2022/07/20 09:41:20;;;;;;;3.83;3.22;;;;;;;30.68;42.07;101522.31;5029704;28;20033;-77
2022/07/20 09:43:46;;;;;;;3.53;3.10;;;;;;;30.68;42.06;101519.63;5030189;28;20029;-77
2022/07/20 09:46:20;;;;;;;3.63;3.03;;;;;;;30.69;42.40;101525.88;5031116;28;20496;-76
2022/07/20 09:48:51;;;;;;;3.83;3.30;;;;;;;30.70;42.13;101528.47;5031576;28;20460;-78
2022/07/20 09:51:28;;;;;;;4.28;3.03;;;;;;;30.72;42.32;101528.38;5031596;28;20116;-77
2022/07/20 09:53:58;;;;;;;3.47;3.10;;;;;;;30.74;42.17;101531.88;5031318;28;20033;-77
2022/07/20 09:56:25;;;;;;;3.45;3.10;;;;;;;30.73;42.29;101528.31;5030017;28;20041;-76
2022/07/20 09:58:53;;;;;;;4.47;3.40;;;;;;;30.75;41.93;101533.56;5031219;28;20038;-76
2022/07/20 10:01:28;;;;;;;4.57;3.40;;;;;;;30.75;41.89;101522.81;5031451;28;20029;-76
2022/07/20 10:03:56;;;;;;;4.32;3.45;;;;;;;30.75;42.10;101526.38;5031491;28;20104;-76
2022/07/20 10:06:23;;;;;;;3.72;3.33;;;;;;;30.76;42.22;101536.19;5029987;28;20045;-76
2022/07/20 10:08:50;;;;;;;4.03;3.45;;;;;;;30.79;42.21;101532.44;5031229;28;20021;-76
2022/07/20 10:11:18;;;;;;;4.03;3.40;;;;;;;30.78;42.25;101531.59;5031305;28;20028;-75
2022/07/20 10:13:44;;;;;;;4.22;3.60;;;;;;;30.77;42.07;101534.34;5030314;28;20091;-76
2022/07/20 10:16:27;;;;;;;3.88;3.30;;;;;;;30.78;42.33;101525.31;5031022;28;20498;-76
2022/07/20 10:18:54;;;;;;;5.05;3.50;;;;;;;30.81;42.31;101519.75;5030910;28;20033;-76
2022/07/20 10:21:47;;;;;;;3.42;3.13;;;;;;;30.82;41.80;101526.84;5012847;28;20099;-77
2022/07/20 10:24:33;;;;;;;4.07;3.30;;;;;;;30.82;42.35;101524.16;5024281;28;20048;-77
2022/07/20 10:27:16;;;;;;;4.40;3.30;;;;;;;30.83;41.91;101525.91;5030808;28;20132;-78
2022/07/20 10:29:43;;;;;;;3.90;3.30;;;;;;;30.83;41.94;101528.59;5031227;28;20387;-77
2022/07/20 10:32:08;;;;;;;3.92;3.50;;;;;;;30.84;42.08;101524.94;5029492;28;20395;-77
2022/07/20 10:34:39;;;;;;;4.00;3.47;;;;;;;30.84;41.84;101525.81;5030150;28;20024;-76
2022/07/20 10:37:35;;;;;;;4.05;3.38;;;;;;;30.84;42.41;101517.75;5029395;28;20108;-76
2022/07/20 10:40:05;;;;;;;4.40;3.65;;;;;;;30.84;42.08;101520.44;5030590;28;20994;-77
2022/07/20 10:42:35;;;;;;;3.95;3.55;;;;;;;30.85;42.22;101532.94;5030352;28;20060;-77
2022/07/20 10:45:27;;;;;;;4.05;3.65;;;;;;;30.85;42.41;101530.25;5030682;28;20648;-77
2022/07/20 10:48:18;;;;;;;3.97;3.58;;;;;;;30.87;41.79;101524.75;5029209;28;20509;-76
2022/07/20 10:50:52;;;;;;;4.10;3.70;;;;;;;30.86;42.13;101510.41;5021294;28;20045;-77
2022/07/20 10:53:17;;;;;;;4.30;3.90;;;;;;;30.89;42.03;101507.56;5030546;28;20056;-78
2022/07/20 10:56:02;;;;;;;3.80;3.40;;;;;;;30.90;42.29;101517.38;5029923;28;20037;-77
2022/07/20 10:58:32;;;;;;;3.72;3.33;;;;;;;30.90;42.26;101514.69;5030088;28;21745;-76
2022/07/20 11:01:04;;;;;;;4.50;3.72;;;;;;;30.91;42.24;101531.69;5030411;28;20037;-76
2022/07/20 11:03:31;;;;;;;4.50;3.80;;;;;;;30.93;42.26;101532.44;5030427;28;20112;-77
2022/07/20 11:06:12;;;;;;;4.70;3.90;;;;;;;30.94;42.33;101542.28;5029437;28;20112;-76
2022/07/20 11:08:40;;;;;;;4.18;3.78;;;;;;;30.93;41.94;101537.84;5028987;28;20033;-76
2022/07/20 11:11:07;;;;;;;4.35;3.65;;;;;;;30.96;41.98;101540.34;5029632;28;20032;-77
2022/07/20 11:13:33;;;;;;;4.10;3.70;;;;;;;30.96;42.23;101540.34;5028221;28;20033;-75
2022/07/20 11:16:01;;;;;;;3.97;3.58;;;;;;;30.98;42.38;101546.53;5029969;28;20032;-77
2022/07/20 11:18:29;;;;;;;4.32;3.90;;;;;;;30.97;42.14;101551.03;5030063;28;20029;-76
2022/07/20 11:21:11;;;;;;;5.28;3.83;;;;;;;31.01;42.36;101551.72;5029808;28;20033;-77
2022/07/20 11:23:42;;;;;;;4.50;3.80;;;;;;;31.00;42.35;101547.28;5029385;28;20033;-76
2022/07/20 11:26:08;;;;;;;4.38;3.97;;;;;;;31.01;42.25;101555.28;5029512;28;20074;-75